Time;durP1;ratioP1;P1;durP2;ratioP2;P2;SDS_P1;SDS_P2;PMS_P1;PMS_P2;Temp;Humidity;BMP_temperature;BMP_pressure;BME280_temperature;BME280_humidity;BME280_pressure;Samples;Min_cycle;Max_cycle;Signal;HPM_P1;HPM_P2
2021/12/11 00:01:45;;;;;;;22.85;13.40;;;;;;;6.52;98.68;99206.34;1721377;83;21128;-68
2021/12/11 00:04:22;;;;;;;23.52;13.88;;;;;;;6.52;98.69;99218.66;1721026;83;21398;-68
2021/12/11 00:06:52;;;;;;;20.45;13.15;;;;;;;6.53;98.70;99218.11;1720857;83;21016;-68
2021/12/11 00:09:24;;;;;;;18.77;12.53;;;;;;;6.53;98.71;99220.30;1721095;83;21410;-67
2021/12/11 00:11:56;;;;;;;17.70;12.45;;;;;;;6.53;98.82;99222.22;1720837;83;20856;-68
2021/12/11 00:14:22;;;;;;;18.48;12.53;;;;;;;6.54;98.83;99232.86;1721100;83;21162;-68
2021/12/11 00:16:50;;;;;;;21.93;12.93;;;;;;;6.55;98.83;99222.16;1696506;83;21420;-68
2021/12/11 00:19:22;;;;;;;25.32;14.40;;;;;;;6.55;98.78;99224.10;1721092;83;20966;-68
2021/12/11 00:21:49;;;;;;;20.88;13.15;;;;;;;6.53;98.79;99223.03;1721642;83;21513;-67
2021/12/11 00:24:25;;;;;;;20.00;13.43;;;;;;;6.54;98.85;99217.80;1721374;82;20999;-68
2021/12/11 00:26:57;;;;;;;;;;;;;;;6.56;98.87;99227.08;1723685;83;21102;-67
2021/12/11 00:29:26;;;;;;;16.50;12.33;;;;;;;6.55;98.84;99224.10;1696695;83;20095;-67
2021/12/11 00:32:04;;;;;;;18.23;12.82;;;;;;;6.51;98.90;99225.25;1721650;83;21002;-67
2021/12/11 00:34:33;;;;;;;24.90;14.55;;;;;;;6.53;99.00;99228.52;1721251;83;21026;-68
2021/12/11 00:37:04;;;;;;;30.62;14.45;;;;;;;6.54;99.07;99230.13;1721151;83;20860;-68
2021/12/11 00:39:38;;;;;;;23.75;15.03;;;;;;;6.56;99.10;99232.56;1721668;83;21354;-66
2021/12/11 00:42:06;;;;;;;21.10;15.50;;;;;;;6.55;99.17;99218.63;1721210;83;21426;-68
2021/12/11 00:44:44;;;;;;;21.05;14.40;;;;;;;6.53;99.24;99226.32;1721375;82;21028;-67
2021/12/11 00:47:18;;;;;;;23.75;14.50;;;;;;;6.52;99.18;99221.39;1720351;83;20948;-67
2021/12/11 00:50:12;;;;;;;20.02;13.25;;;;;;;6.50;99.33;99218.14;1721317;83;21035;-68
2021/12/11 00:52:52;;;;;;;24.25;16.25;;;;;;;6.50;99.29;99227.72;1696778;83;20928;-67
2021/12/11 00:55:35;;;;;;;26.70;16.07;;;;;;;6.47;99.34;99216.00;1721272;83;20917;-68
2021/12/11 00:58:27;;;;;;;21.25;14.30;;;;;;;6.45;99.47;99229.99;1697377;83;20959;-68
2021/12/11 01:01:01;;;;;;;22.50;14.28;;;;;;;6.47;99.59;99235.16;1721291;82;21024;-67
2021/12/11 01:03:33;;;;;;;21.30;15.80;;;;;;;6.48;99.77;99232.70;1721358;82;20971;-69
2021/12/11 01:06:04;;;;;;;21.33;16.32;;;;;;;6.47;99.75;99225.58;1718859;83;21157;-68
2021/12/11 01:08:35;;;;;;;25.37;16.27;;;;;;;6.47;99.80;99228.32;1721003;83;20983;-68
2021/12/11 01:11:36;;;;;;;26.37;16.90;;;;;;;6.46;99.91;99223.97;1721411;83;20916;-67
2021/12/11 01:14:22;;;;;;;26.45;16.75;;;;;;;6.45;99.98;99214.11;1721078;83;21535;-67
2021/12/11 01:17:04;;;;;;;26.35;17.85;;;;;;;6.49;100.00;99217.89;1720587;83;20979;-66
2021/12/11 01:19:36;;;;;;;28.38;17.80;;;;;;;6.50;100.00;99220.88;1721356;83;21093;-66
2021/12/11 01:22:09;;;;;;;33.33;17.77;;;;;;;6.51;100.00;99227.17;1721087;83;21401;-67
2021/12/11 01:24:44;;;;;;;29.60;17.98;;;;;;;6.50;100.00;99219.50;1697908;83;21472;-66
2021/12/11 01:27:15;;;;;;;21.93;16.20;;;;;;;6.47;100.00;99218.74;1696642;83;21443;-68
2021/12/11 01:29:44;;;;;;;30.48;17.62;;;;;;;6.47;100.00;99218.74;1697014;83;20907;-68
2021/12/11 01:32:15;;;;;;;25.40;17.17;;;;;;;6.49;100.00;99221.17;1721184;83;21093;-67
2021/12/11 01:34:43;;;;;;;26.15;17.48;;;;;;;6.50;100.00;99234.56;1721459;83;20992;-68
2021/12/11 01:37:10;;;;;;;23.60;16.25;;;;;;;6.51;100.00;99226.63;1721259;83;20880;-67
2021/12/11 01:39:38;;;;;;;28.98;17.10;;;;;;;6.50;100.00;99224.98;1721528;83;20975;-68
2021/12/11 01:42:21;;;;;;;29.07;17.45;;;;;;;6.49;100.00;99226.11;1721520;83;21535;-67
2021/12/11 01:44:48;;;;;;;25.02;16.85;;;;;;;6.51;100.00;99218.41;1721400;83;21473;-68
2021/12/11 01:47:22;;;;;;;26.12;17.07;;;;;;;6.52;100.00;99221.39;1686771;83;20932;-68
2021/12/11 01:49:51;;;;;;;30.15;18.57;;;;;;;6.52;100.00;99226.87;1714952;83;20932;-68
2021/12/11 01:52:33;;;;;;;28.70;17.00;;;;;;;6.56;100.00;99216.95;1715301;83;20931;-68
2021/12/11 01:54:54;;;;;;;31.05;16.77;;;;;;;6.57;100.00;99210.36;1686169;83;21030;-69
2021/12/11 01:57:26;;;;;;;30.50;17.67;;;;;;;6.60;100.00;99213.61;1715491;83;21051;-68
2021/12/11 02:00:02;;;;;;;24.18;16.23;;;;;;;6.60;100.00;99217.72;1687543;83;20928;-68
2021/12/11 02:02:39;;;;;;;27.07;15.32;;;;;;;6.60;100.00;99224.56;1713643;83;20983;-66
2021/12/11 02:05:09;;;;;;;26.20;16.42;;;;;;;6.59;100.00;99216.89;1715706;83;21504;-67
2021/12/11 02:07:47;;;;;;;20.95;15.63;;;;;;;6.60;100.00;99218.54;1687038;83;20983;-68
2021/12/11 02:10:21;;;;;;;24.37;14.98;;;;;;;6.62;100.00;99214.13;1715333;83;21143;-67
2021/12/11 02:12:47;;;;;;;23.35;15.20;;;;;;;6.61;100.00;99216.05;1715359;83;20984;-68
2021/12/11 02:15:20;;;;;;;21.80;15.48;;;;;;;6.62;100.00;99215.50;1715608;83;20967;-68
2021/12/11 02:18:00;;;;;;;26.12;14.28;;;;;;;6.62;100.00;99216.29;1709206;83;20996;-68
2021/12/11 02:20:37;;;;;;;21.23;14.07;;;;;;;6.64;100.00;99222.83;1687044;83;21055;-67
2021/12/11 02:23:05;;;;;;;20.15;13.88;;;;;;;6.64;100.00;99223.66;1715657;83;21923;-66
2021/12/11 02:25:38;;;;;;;20.40;14.73;;;;;;;6.63;100.00;99239.84;1687169;83;21386;-68
2021/12/11 02:28:30;;;;;;;22.70;13.83;;;;;;;6.66;100.00;99243.88;1715486;83;21460;-68
2021/12/11 02:31:28;;;;;;;22.27;14.50;;;;;;;6.67;100.00;99244.16;1686773;83;20924;-66
2021/12/11 02:34:09;;;;;;;21.12;13.62;;;;;;;6.69;100.00;99239.17;1715532;83;20932;-67
2021/12/11 02:36:43;;;;;;;27.50;15.10;;;;;;;6.69;100.00;99240.54;1704226;83;21170;-68
2021/12/11 02:39:21;;;;;;;22.98;14.28;;;;;;;6.69;100.00;99241.91;1687128;83;20932;-68
2021/12/11 02:42:12;;;;;;;26.25;15.38;;;;;;;6.69;100.00;99246.84;1715756;83;20963;-68
2021/12/11 02:44:44;;;;;;;25.37;14.15;;;;;;;6.69;100.00;99238.63;1686904;83;21036;-68
2021/12/11 02:47:28;;;;;;;21.73;13.80;;;;;;;6.70;100.00;99237.50;1715090;81;21008;-66
2021/12/11 02:50:20;;;;;;;24.40;14.70;;;;;;;6.73;100.00;99244.31;1715659;83;21789;-67
2021/12/11 02:53:06;;;;;;;23.40;14.55;;;;;;;6.73;100.00;99244.31;1686963;83;20932;-66
2021/12/11 02:55:42;;;;;;;18.32;13.83;;;;;;;6.75;100.00;99239.36;1715110;83;20933;-67
2021/12/11 02:58:17;;;;;;;20.60;14.45;;;;;;;6.73;100.00;99226.52;1715378;83;21466;-67
2021/12/11 03:00:55;;;;;;;26.20;14.60;;;;;;;6.73;100.00;99230.63;1714215;83;20972;-68
2021/12/11 03:03:31;;;;;;;21.27;13.85;;;;;;;6.72;100.00;99230.92;1715359;83;21217;-69
2021/12/11 03:06:11;;;;;;;23.05;13.85;;;;;;;6.70;100.00;99229.86;1715474;83;20923;-68
2021/12/11 03:08:30;;;;;;;15.53;10.75;;;;;;;6.70;100.00;99232.02;1712806;83;21079;-67
2021/12/11 03:11:02;;;;;;;19.45;13.18;;;;;;;6.71;100.00;99231.47;1715309;83;20892;-67
2021/12/11 03:13:31;;;;;;;24.63;14.70;;;;;;;6.70;100.00;99230.66;1687101;83;21004;-67
2021/12/11 03:15:58;;;;;;;15.80;12.40;;;;;;;6.69;100.00;99231.78;1686768;83;21188;-67
2021/12/11 03:18:26;;;;;;;22.82;13.93;;;;;;;6.68;100.00;99227.97;1714662;83;20947;-66
2021/12/11 03:20:54;;;;;;;22.05;13.70;;;;;;;6.68;100.00;99226.06;1715347;83;20912;-67
2021/12/11 03:23:20;;;;;;;29.50;14.40;;;;;;;6.69;100.00;99227.67;1715562;83;20979;-68
2021/12/11 03:25:48;;;;;;;22.22;14.07;;;;;;;6.71;100.00;99232.84;1715301;83;21008;-67
2021/12/11 03:28:20;;;;;;;22.35;13.45;;;;;;;6.73;100.00;99224.33;1715128;83;21228;-67
2021/12/11 03:30:56;;;;;;;21.77;14.35;;;;;;;6.74;100.00;99230.08;1715172;83;20972;-68
2021/12/11 03:33:20;;;;;;;24.50;13.45;;;;;;;6.74;100.00;99228.70;1715250;83;20881;-67
2021/12/11 03:35:47;;;;;;;22.17;14.68;;;;;;;6.74;100.00;99219.91;1686901;83;21032;-67
2021/12/11 03:38:15;;;;;;;21.97;14.45;;;;;;;6.74;100.00;99222.66;1686756;83;21429;-67
2021/12/11 03:40:42;;;;;;;19.95;13.48;;;;;;;6.74;100.00;99224.02;1686640;83;20962;-68
2021/12/11 03:43:14;;;;;;;22.42;14.53;;;;;;;6.76;100.00;99222.34;1715046;83;20932;-67
2021/12/11 03:45:41;;;;;;;21.60;13.03;;;;;;;6.76;100.00;99220.43;1664320;83;21106;-67
2021/12/11 03:48:21;;;;;;;18.55;13.62;;;;;;;6.77;100.00;99216.56;1721098;83;20996;-66
2021/12/11 03:50:47;;;;;;;22.67;13.83;;;;;;;6.78;100.00;99205.06;1721290;83;20967;-67
2021/12/11 03:53:14;;;;;;;20.37;13.22;;;;;;;6.78;100.00;99205.89;1721196;83;21912;-67
2021/12/11 03:55:46;;;;;;;21.05;13.90;;;;;;;6.78;100.00;99211.91;1720962;83;20935;-67
2021/12/11 03:58:15;;;;;;;22.73;13.35;;;;;;;6.79;100.00;99203.39;1721199;82;21071;-68
2021/12/11 04:00:53;;;;;;;23.42;13.50;;;;;;;6.78;100.00;99214.10;1721053;83;20940;-67
2021/12/11 04:03:23;;;;;;;18.52;13.88;;;;;;;6.74;100.00;99217.17;1721152;83;20948;-68
2021/12/11 04:05:50;;;;;;;19.10;13.18;;;;;;;6.75;100.00;99218.82;1720457;82;21119;-67
2021/12/11 04:08:25;;;;;;;17.87;13.50;;;;;;;6.76;100.00;99216.33;1696331;83;21004;-68
2021/12/11 04:10:53;;;;;;;36.95;16.30;;;;;;;6.77;100.00;99209.72;1696573;83;20884;-67
2021/12/11 04:13:22;;;;;;;20.15;14.28;;;;;;;6.79;100.00;99207.50;1721239;83;21425;-68
2021/12/11 04:15:51;;;;;;;20.70;14.15;;;;;;;6.79;100.00;99210.23;1696721;83;21042;-67
2021/12/11 04:18:21;;;;;;;21.17;14.20;;;;;;;6.79;100.00;99198.49;1721097;83;20880;-67
2021/12/11 04:20:49;;;;;;;29.50;15.43;;;;;;;6.82;100.00;99202.78;1721140;83;21020;-67
2021/12/11 04:23:16;;;;;;;18.77;13.20;;;;;;;6.84;100.00;99189.36;1721024;83;21043;-66
2021/12/11 04:25:47;;;;;;;30.30;16.48;;;;;;;6.85;100.00;99204.67;1721534;83;20888;-68
2021/12/11 04:28:17;;;;;;;21.15;14.78;;;;;;;6.85;100.00;99204.12;1721122;83;20940;-67
2021/12/11 04:30:45;;;;;;;29.20;14.83;;;;;;;6.85;100.00;99207.41;1721344;83;21116;-67
2021/12/11 04:33:12;;;;;;;25.43;15.48;;;;;;;6.84;100.00;99205.80;1696847;83;20936;-67
2021/12/11 04:35:41;;;;;;;21.77;14.40;;;;;;;6.84;100.00;99211.27;1721073;83;20971;-67
2021/12/11 04:38:11;;;;;;;20.57;13.83;;;;;;;6.83;99.93;99198.13;1721059;83;21429;-67
2021/12/11 04:40:42;;;;;;;23.60;15.60;;;;;;;6.81;99.94;99198.98;1696648;83;20992;-68
2021/12/11 04:43:15;;;;;;;20.75;14.55;;;;;;;6.81;99.93;99187.47;1696449;83;20992;-67
2021/12/11 04:45:45;;;;;;;21.70;15.03;;;;;;;6.81;99.81;99211.30;1696436;83;21041;-66
2021/12/11 04:53:59;;;;;;;21.55;13.53;;;;;;;6.81;99.82;99216.78;1721184;83;20880;-68
2021/12/11 04:56:42;;;;;;;21.45;15.00;;;;;;;6.81;99.80;99213.49;1719371;83;21245;-67
2021/12/11 04:59:27;;;;;;;23.12;15.10;;;;;;;6.80;99.75;99226.13;1696436;83;20924;-68
2021/12/11 05:04:56;;;;;;;27.77;15.18;;;;;;;6.80;99.62;99220.09;1721187;82;21059;-68
2021/12/11 05:07:26;;;;;;;13.20;10.32;;;;;;;6.80;99.59;99224.20;1719096;83;20972;-67
2021/12/11 05:10:13;;;;;;;18.80;13.58;;;;;;;6.78;99.46;99207.80;1721335;83;21830;-66
2021/12/11 05:12:39;;;;;;;19.95;13.68;;;;;;;6.77;99.47;99216.56;1706429;83;20967;-68
2021/12/11 05:15:18;;;;;;;24.60;15.63;;;;;;;6.77;99.54;99219.88;1696690;83;20927;-67
2021/12/11 05:17:45;;;;;;;25.17;15.53;;;;;;;6.77;99.51;99222.05;1721515;83;21015;-68
2021/12/11 05:20:13;;;;;;;24.37;15.55;;;;;;;6.77;99.50;99228.89;1721177;82;20948;-67
2021/12/11 05:22:41;;;;;;;21.15;15.45;;;;;;;6.78;99.50;99219.58;1721442;83;21515;-67
2021/12/11 05:25:11;;;;;;;23.85;15.15;;;;;;;6.77;99.42;99211.09;1696729;83;20940;-69
2021/12/11 05:27:39;;;;;;;21.23;13.53;;;;;;;6.78;99.42;99218.76;1721207;83;21536;-69
2021/12/11 05:30:10;;;;;;;24.12;15.75;;;;;;;6.76;99.49;99212.22;1721701;83;21086;-67
2021/12/11 05:32:38;;;;;;;21.75;14.95;;;;;;;6.76;99.57;99220.43;1721464;83;20961;-67
2021/12/11 05:35:06;;;;;;;23.92;15.78;;;;;;;6.75;99.43;99218.82;1696678;83;21218;-67
2021/12/11 05:37:33;;;;;;;22.27;15.80;;;;;;;6.75;99.45;99222.11;1721191;83;20975;-68
2021/12/11 05:40:01;;;;;;;23.92;16.70;;;;;;;6.75;99.46;99205.67;1720796;82;20964;-69
2021/12/11 05:42:27;;;;;;;21.85;14.45;;;;;;;6.74;99.40;99208.17;1721305;83;21036;-69
2021/12/11 05:44:55;;;;;;;22.02;15.43;;;;;;;6.72;99.37;99209.02;1721554;83;20844;-67
2021/12/11 05:47:23;;;;;;;24.65;14.90;;;;;;;6.70;99.50;99212.06;1717661;83;21087;-68
2021/12/11 05:49:51;;;;;;;23.42;15.32;;;;;;;6.70;99.51;99205.22;1715242;83;21458;-69
2021/12/11 05:52:21;;;;;;;21.17;14.78;;;;;;;6.67;99.45;99202.52;1715113;83;21035;-67
2021/12/11 05:54:47;;;;;;;26.68;16.82;;;;;;;6.67;99.57;99205.25;1715408;83;21556;-68
2021/12/11 05:57:18;;;;;;;23.00;15.18;;;;;;;6.66;99.60;99209.66;1686763;83;20916;-67
2021/12/11 05:59:47;;;;;;;30.23;17.00;;;;;;;6.64;99.63;99209.14;1715316;83;21280;-67
2021/12/11 06:02:24;;;;;;;23.85;15.00;;;;;;;6.64;99.84;99214.07;1715214;83;20900;-68
2021/12/11 06:04:53;;;;;;;26.48;15.03;;;;;;;6.65;99.84;99209.41;1715499;83;21000;-67
2021/12/11 06:07:21;;;;;;;24.82;14.38;;;;;;;6.65;99.86;99217.05;1715452;83;20980;-69
2021/12/11 06:09:52;;;;;;;25.82;15.18;;;;;;;6.65;99.95;99220.37;1715353;83;21004;-68
2021/12/11 06:12:20;;;;;;;22.55;15.05;;;;;;;6.65;99.89;99215.69;1715294;83;21132;-68
2021/12/11 06:14:50;;;;;;;23.90;15.55;;;;;;;6.65;99.89;99210.78;1686749;83;20984;-68
2021/12/11 06:17:21;;;;;;;18.57;13.62;;;;;;;6.65;99.90;99219.79;1715204;83;21048;-67
2021/12/11 06:19:52;;;;;;;23.42;15.50;;;;;;;6.65;99.90;99211.58;1714340;83;20904;-68
2021/12/11 06:22:24;;;;;;;22.30;15.80;;;;;;;6.67;99.94;99213.46;1715599;83;20916;-68
2021/12/11 06:24:54;;;;;;;21.00;14.18;;;;;;;6.68;100.00;99210.17;1715283;83;21170;-68
2021/12/11 06:27:23;;;;;;;24.18;14.38;;;;;;;6.69;99.95;99212.61;1715428;83;20880;-67
2021/12/11 06:29:50;;;;;;;19.55;13.43;;;;;;;6.71;99.83;99210.94;1715354;83;21401;-67
2021/12/11 06:32:16;;;;;;;17.87;14.03;;;;;;;6.70;99.68;99213.44;1686895;83;20955;-68
2021/12/11 06:34:43;;;;;;;20.15;14.15;;;;;;;6.69;99.54;99218.09;1715392;83;20980;-69
2021/12/11 06:37:10;;;;;;;23.45;14.73;;;;;;;6.68;99.45;99223.87;1686686;83;21043;-67
2021/12/11 06:39:37;;;;;;;25.62;14.68;;;;;;;6.68;99.51;99221.13;1715226;83;21027;-68
2021/12/11 06:42:06;;;;;;;19.98;14.63;;;;;;;6.68;99.41;99221.13;1715300;83;20892;-67
2021/12/11 06:44:34;;;;;;;27.55;15.60;;;;;;;6.68;99.39;99226.06;1715196;83;21035;-67
2021/12/11 06:47:03;;;;;;;20.37;13.45;;;;;;;6.69;99.32;99224.94;1715274;83;20983;-68
2021/12/11 06:49:32;;;;;;;25.00;14.93;;;;;;;6.71;99.30;99224.63;1686685;83;21534;-69
2021/12/11 06:52:06;;;;;;;26.62;13.95;;;;;;;6.72;99.19;99235.83;1715197;83;21398;-68
2021/12/11 06:54:35;;;;;;;22.85;14.07;;;;;;;6.72;99.09;99225.45;1715192;83;20959;-69
2021/12/11 06:57:01;;;;;;;19.77;13.90;;;;;;;6.73;99.08;99221.59;1715532;83;21000;-68
2021/12/11 06:59:29;;;;;;;23.85;16.07;;;;;;;6.75;99.02;99231.14;1715331;83;21074;-69
2021/12/11 07:02:00;;;;;;;25.45;14.85;;;;;;;6.74;98.86;99230.08;1715296;83;21126;-69
2021/12/11 07:04:30;;;;;;;24.20;15.08;;;;;;;6.72;98.70;99228.19;1715312;83;20971;-68
2021/12/11 07:06:56;;;;;;;22.75;14.93;;;;;;;6.72;98.67;99230.34;1715143;83;21047;-67
2021/12/11 07:09:27;;;;;;;20.92;14.10;;;;;;;6.73;98.52;99225.69;1715322;83;20992;-69
2021/12/11 07:11:55;;;;;;;20.82;14.18;;;;;;;6.72;98.49;99230.34;1686672;83;20953;-67
2021/12/11 07:14:26;;;;;;;22.70;15.83;;;;;;;6.71;98.34;99234.21;1715172;83;21134;-68
2021/12/11 07:16:54;;;;;;;24.05;15.08;;;;;;;6.72;98.33;99232.30;1715382;83;20930;-69
2021/12/11 07:19:20;;;;;;;22.80;15.28;;;;;;;6.72;98.17;99228.19;1715352;83;20861;-68
2021/12/11 07:21:50;;;;;;;22.42;16.73;;;;;;;6.69;98.15;99226.85;1715419;83;21048;-68
2021/12/11 07:24:23;;;;;;;21.40;14.28;;;;;;;6.69;98.15;99227.67;1715200;83;21518;-69
2021/12/11 07:26:53;;;;;;;21.82;14.20;;;;;;;6.69;98.13;99228.22;1713069;83;20972;-69
2021/12/11 07:29:22;;;;;;;24.27;15.20;;;;;;;6.69;98.00;99239.17;1714994;83;21008;-67
2021/12/11 07:31:53;;;;;;;23.87;15.03;;;;;;;6.69;98.01;99226.85;1715290;83;20996;-69
2021/12/11 07:34:20;;;;;;;20.60;13.95;;;;;;;6.69;97.96;99230.95;1686723;83;20976;-68
2021/12/11 07:36:46;;;;;;;21.80;15.15;;;;;;;6.68;97.90;99222.50;1715253;83;20928;-68
2021/12/11 07:39:15;;;;;;;22.40;15.30;;;;;;;6.67;97.82;99223.63;1715523;83;21413;-69
2021/12/11 07:41:45;;;;;;;21.00;14.20;;;;;;;6.68;97.88;99229.34;1715088;83;20876;-70
2021/12/11 07:44:12;;;;;;;24.85;16.20;;;;;;;6.67;97.80;99233.20;1715265;83;20924;-70
2021/12/11 07:46:48;;;;;;;22.80;14.45;;;;;;;6.68;97.86;99228.80;1715544;82;20943;-67
2021/12/11 07:49:15;;;;;;;24.50;15.25;;;;;;;6.68;97.76;99221.95;1721130;83;21074;-69
2021/12/11 07:51:43;;;;;;;22.55;15.98;;;;;;;6.68;97.72;99232.91;1721386;83;21225;-69
2021/12/11 07:54:11;;;;;;;25.25;15.23;;;;;;;6.68;97.72;99233.45;1721075;83;20919;-70
2021/12/11 07:56:39;;;;;;;31.07;16.67;;;;;;;6.67;97.64;99223.05;1721156;83;20908;-69
2021/12/11 07:59:07;;;;;;;21.85;15.38;;;;;;;6.70;97.63;99223.02;1721175;83;47310;-69
2021/12/11 08:01:41;;;;;;;23.42;15.78;;;;;;;6.71;97.60;99223.27;1721369;83;20932;-69
2021/12/11 08:04:10;;;;;;;29.30;16.48;;;;;;;6.72;97.55;99230.92;1721082;83;21138;-69
2021/12/11 08:06:41;;;;;;;21.68;15.35;;;;;;;6.72;97.53;99234.45;1721189;83;20984;-69
2021/12/11 08:09:13;;;;;;;21.82;15.68;;;;;;;6.73;97.46;99230.63;1721146;83;21493;-70
2021/12/11 08:11:40;;;;;;;27.17;16.00;;;;;;;6.73;97.27;99238.02;1697054;83;21500;-66
2021/12/11 08:14:09;;;;;;;24.12;16.17;;;;;;;6.69;97.33;99239.99;1721298;83;20900;-69
2021/12/11 08:16:45;;;;;;;23.47;16.10;;;;;;;6.70;97.29;99236.70;1721219;83;21094;-70
2021/12/11 08:19:09;;;;;;;33.13;16.42;;;;;;;6.68;97.29;99238.93;1720362;83;21046;-69
2021/12/11 08:21:38;;;;;;;25.23;15.80;;;;;;;6.67;97.28;99225.78;1721134;83;20995;-69
2021/12/11 08:24:08;;;;;;;24.87;15.25;;;;;;;6.66;97.26;99228.28;1721234;83;20920;-70
2021/12/11 08:26:36;;;;;;;23.02;15.75;;;;;;;6.65;97.25;99224.48;1721260;83;21481;-69
2021/12/11 08:29:04;;;;;;;23.38;15.75;;;;;;;6.65;97.27;99225.84;1721363;83;21156;-69
2021/12/11 08:31:33;;;;;;;24.30;15.80;;;;;;;6.65;97.38;99225.84;1721155;83;21489;-70
2021/12/11 08:34:02;;;;;;;26.85;17.40;;;;;;;6.65;97.38;99225.27;1721492;83;20972;-67
2021/12/11 08:36:30;;;;;;;20.68;14.40;;;;;;;6.65;97.35;99225.84;1721126;83;21446;-69
2021/12/11 08:38:59;;;;;;;27.13;16.50;;;;;;;6.64;97.36;99224.20;1721555;83;21047;-69
2021/12/11 08:41:27;;;;;;;26.20;16.42;;;;;;;6.61;97.31;99222.06;1721224;83;21828;-69
2021/12/11 08:44:00;;;;;;;22.20;15.83;;;;;;;6.58;97.34;99218.81;1696964;83;20911;-69
2021/12/11 08:46:31;;;;;;;21.65;14.80;;;;;;;6.55;97.33;99223.52;1721006;83;20896;-67
2021/12/11 08:49:00;;;;;;;24.47;14.58;;;;;;;6.52;97.46;99222.77;1721150;81;20884;-69
2021/12/11 08:51:44;;;;;;;19.48;12.60;;;;;;;6.49;97.47;99221.17;1696710;83;21553;-69
2021/12/11 08:54:10;;;;;;;18.07;12.13;;;;;;;6.45;97.43;99218.22;1720660;83;21514;-68
2021/12/11 08:56:40;;;;;;;22.40;13.60;;;;;;;6.41;97.59;99229.53;1696679;83;20967;-67
2021/12/11 08:59:12;;;;;;;21.40;13.38;;;;;;;6.39;97.73;99224.91;1721521;83;21456;-70
2021/12/11 09:01:57;;;;;;;18.67;12.60;;;;;;;6.38;97.90;99224.08;1721389;83;21473;-66
2021/12/11 09:04:35;;;;;;;20.37;13.32;;;;;;;6.39;98.00;99230.38;1721280;83;20928;-69
2021/12/11 09:07:22;;;;;;;20.80;12.73;;;;;;;6.39;98.02;99227.64;1721384;83;21089;-69
2021/12/11 09:10:05;;;;;;;19.90;12.65;;;;;;;6.36;98.05;99220.86;1721672;83;21092;-71
2021/12/11 09:12:42;;;;;;;16.62;12.03;;;;;;;6.33;98.08;99223.62;1721317;83;20884;-70
2021/12/11 09:15:21;;;;;;;17.37;11.45;;;;;;;6.31;98.12;99226.41;1721331;82;20987;-69
2021/12/11 09:17:56;;;;;;;21.77;13.78;;;;;;;6.28;98.12;99231.09;1721348;83;21405;-69
2021/12/11 09:20:30;;;;;;;19.50;12.68;;;;;;;6.26;98.28;99215.55;1721097;83;21160;-70
2021/12/11 09:23:02;;;;;;;;;;;;;;;6.25;98.30;99224.84;1723850;83;20971;-69
2021/12/11 09:25:43;;;;;;;23.73;14.47;;;;;;;6.23;98.38;99216.94;1721689;83;20419;-69
2021/12/11 09:28:21;;;;;;;24.07;15.43;;;;;;;6.23;98.42;99220.25;1721290;83;22110;-69
2021/12/11 09:30:53;;;;;;;23.85;14.10;;;;;;;6.23;98.48;99223.78;1721105;83;21043;-70
2021/12/11 09:33:29;;;;;;;20.00;13.50;;;;;;;6.24;98.54;99218.58;1721381;83;21397;-69
2021/12/11 09:36:02;;;;;;;19.62;12.88;;;;;;;6.23;98.48;99225.15;1721132;83;21510;-69
2021/12/11 09:38:38;;;;;;;22.35;13.30;;;;;;;6.23;98.49;99225.15;1721613;83;20959;-70
2021/12/11 09:41:20;;;;;;;21.97;13.00;;;;;;;6.21;98.52;99228.19;1721523;83;21405;-69
2021/12/11 09:44:19;;;;;;;24.52;14.65;;;;;;;6.21;98.45;99235.02;1698904;83;20991;-68
2021/12/11 09:46:51;;;;;;;20.45;13.75;;;;;;;6.17;98.38;99228.54;1721375;83;21133;-70
2021/12/11 09:49:24;;;;;;;20.85;14.13;;;;;;;6.16;98.40;99218.69;1715726;82;21043;-69
2021/12/11 09:52:01;;;;;;;24.32;14.33;;;;;;;6.13;98.75;99225.30;1715191;83;20939;-69
2021/12/11 09:54:24;;;;;;;23.95;14.28;;;;;;;6.09;98.59;99212.23;1714299;83;21465;-70
2021/12/11 09:57:00;;;;;;;22.93;14.65;;;;;;;6.08;98.62;99221.55;1715287;83;20920;-69
2021/12/11 09:59:29;;;;;;;25.60;15.23;;;;;;;6.10;98.70;99211.68;1715435;83;22055;-67
2021/12/11 10:02:02;;;;;;;24.52;14.83;;;;;;;6.08;98.59;99209.24;1715335;83;21068;-71
2021/12/11 10:04:35;;;;;;;24.12;15.90;;;;;;;6.05;98.56;99222.16;1715334;83;21515;-67
2021/12/11 10:09:47;;;;;;;30.17;15.72;;;;;;;6.04;98.62;99217.74;1715253;83;20892;-67
2021/12/11 10:12:18;;;;;;;24.20;14.78;;;;;;;6.01;98.50;99214.23;1715300;83;21102;-69
2021/12/11 10:14:52;;;;;;;26.00;16.02;;;;;;;6.01;98.57;99222.99;1715572;83;21064;-68
2021/12/11 10:17:23;;;;;;;28.57;16.95;;;;;;;6.01;98.54;99225.73;1686857;83;20992;-68
2021/12/11 10:19:53;;;;;;;25.95;15.60;;;;;;;6.01;98.64;99226.55;1715346;83;20956;-69
2021/12/11 10:22:31;;;;;;;23.92;14.78;;;;;;;6.02;98.67;99232.27;1715350;83;20980;-67
2021/12/11 10:24:58;;;;;;;26.33;15.38;;;;;;;6.03;98.60;99231.72;1686615;83;21489;-68
2021/12/11 10:27:29;;;;;;;24.45;14.63;;;;;;;6.00;98.43;99229.03;1715217;83;20979;-67
2021/12/11 10:29:57;;;;;;;26.07;15.35;;;;;;;6.00;98.48;99225.48;1687162;83;21087;-69
2021/12/11 10:32:29;;;;;;;25.10;15.38;;;;;;;6.00;98.50;99229.03;1715128;83;20956;-68
2021/12/11 10:35:04;;;;;;;25.57;14.53;;;;;;;6.00;98.49;99231.77;1686786;83;21548;-68
2021/12/11 10:37:37;;;;;;;21.27;13.38;;;;;;;6.00;98.38;99238.61;1713951;83;20897;-68
2021/12/11 10:40:16;;;;;;;23.55;13.95;;;;;;;6.00;98.29;99240.52;1715152;83;20920;-68
2021/12/11 10:42:46;;;;;;;19.27;12.68;;;;;;;6.01;98.33;99233.93;1713482;83;21397;-68
2021/12/11 10:45:14;;;;;;;25.77;13.53;;;;;;;6.03;98.39;99235.83;1715456;83;20884;-68
2021/12/11 10:47:48;;;;;;;20.15;13.58;;;;;;;6.03;98.34;99231.17;1686632;83;21449;-67
2021/12/11 10:50:39;;;;;;;19.92;13.22;;;;;;;6.02;98.16;99226.80;1715248;83;20915;-68
2021/12/11 10:53:10;;;;;;;22.62;13.32;;;;;;;6.01;98.16;99218.89;1711010;83;21003;-68
2021/12/11 10:55:39;;;;;;;24.37;14.33;;;;;;;6.00;98.22;99226.30;1686522;83;20975;-69
2021/12/11 10:58:13;;;;;;;21.95;12.45;;;;;;;6.00;98.33;99226.30;1715258;83;20928;-68
2021/12/11 11:01:06;;;;;;;17.85;12.10;;;;;;;6.01;98.37;99228.46;1715428;83;20956;-68
2021/12/11 11:03:39;;;;;;;20.00;11.20;;;;;;;6.01;98.36;99229.28;1688414;83;21871;-68
2021/12/11 11:06:06;;;;;;;20.80;11.55;;;;;;;5.99;98.24;99227.39;1715289;83;20929;-67
2021/12/11 11:08:33;;;;;;;24.23;12.30;;;;;;;5.96;98.26;99235.66;1715390;83;20967;-67
2021/12/11 11:11:06;;;;;;;19.00;10.68;;;;;;;5.94;98.33;99239.23;1687122;83;20984;-68
2021/12/11 11:13:35;;;;;;;17.75;10.58;;;;;;;5.93;98.36;99232.14;1715345;83;21547;-68
2021/12/11 11:16:05;;;;;;;14.15;8.60;;;;;;;5.93;98.40;99240.89;1715120;83;21135;-69
2021/12/11 11:18:32;;;;;;;12.03;8.65;;;;;;;5.91;98.41;99235.72;1715287;83;20880;-68
2021/12/11 11:21:15;;;;;;;13.93;8.48;;;;;;;5.90;98.55;99242.28;1686811;83;20940;-68
2021/12/11 11:23:45;;;;;;;12.60;8.37;;;;;;;5.92;98.63;99231.08;1715463;83;21429;-67
2021/12/11 11:26:20;;;;;;;15.43;9.18;;;;;;;5.91;98.63;99231.62;1715434;83;20880;-68
2021/12/11 11:28:46;;;;;;;13.55;8.75;;;;;;;5.93;98.63;99228.59;1715699;83;21500;-66
2021/12/11 11:31:17;;;;;;;12.63;7.67;;;;;;;5.89;98.54;99233.83;1715121;83;20984;-69
2021/12/11 11:33:45;;;;;;;11.70;8.63;;;;;;;5.90;98.70;99231.92;1715742;83;21403;-68
2021/12/11 11:36:15;;;;;;;12.75;8.33;;;;;;;5.90;98.69;99231.34;1715141;83;20924;-68
2021/12/11 11:38:46;;;;;;;12.28;8.38;;;;;;;5.91;98.61;99236.27;1715469;83;20880;-67
2021/12/11 11:41:24;;;;;;;12.03;8.78;;;;;;;5.85;98.45;99239.65;1715250;83;21426;-67
2021/12/11 11:43:58;;;;;;;9.73;7.10;;;;;;;5.81;98.63;99234.50;1715316;83;20983;-68
2021/12/11 11:46:24;;;;;;;;;;;;;;;5.82;98.82;99242.41;1717995;83;21381;-68
2021/12/11 11:48:55;;;;;;;13.03;6.97;;;;;;;5.83;98.79;99242.65;1715433;83;20083;-68
2021/12/11 11:51:38;;;;;;;10.88;7.28;;;;;;;5.83;98.81;99247.33;1715354;83;20904;-68
2021/12/11 11:54:07;;;;;;;;;;;;;;;5.80;98.88;99236.41;1717534;83;21129;-67
2021/12/11 11:56:41;;;;;;;10.45;7.15;;;;;;;5.81;98.92;99242.16;1715200;83;20091;-69
2021/12/11 11:59:09;;;;;;;8.00;5.63;;;;;;;5.82;99.10;99251.16;1715758;83;20975;-68